createdAt,value
2022-12-16T00:00:07.079Z,5.40
2022-12-16T00:02:34.582Z,5.50
2022-12-16T00:05:01.842Z,3.92
2022-12-16T00:07:29.202Z,4.47
2022-12-16T00:09:56.314Z,4.55
2022-12-16T00:12:23.601Z,3.53
2022-12-16T00:14:50.830Z,3.97
2022-12-16T00:17:19.142Z,4.82
2022-12-16T00:19:46.272Z,4.80
2022-12-16T00:22:13.524Z,4.38
2022-12-16T00:24:40.671Z,4.95
2022-12-16T00:27:07.915Z,3.33
2022-12-16T00:29:35.371Z,4.05
2022-12-16T00:32:02.928Z,4.72
2022-12-16T00:34:30.276Z,3.33
2022-12-16T00:36:57.410Z,4.35
2022-12-16T00:39:24.546Z,4.97
2022-12-16T00:41:51.992Z,4.30
2022-12-16T00:44:19.207Z,4.15
2022-12-16T00:46:46.436Z,3.85
2022-12-16T00:49:13.617Z,3.88
2022-12-16T00:51:40.760Z,4.30
2022-12-16T00:54:07.913Z,4.07
2022-12-16T00:56:35.371Z,3.80
2022-12-16T00:59:02.510Z,3.53
2022-12-16T01:01:29.908Z,3.45
2022-12-16T01:03:58.010Z,3.95
2022-12-16T01:06:25.352Z,4.25
2022-12-16T01:08:52.596Z,3.17
2022-12-16T01:11:22.159Z,3.67
2022-12-16T01:13:55.271Z,4.07
2022-12-16T01:16:22.685Z,4.32
2022-12-16T01:18:49.947Z,4.22
2022-12-16T01:21:17.128Z,3.15
2022-12-16T01:23:44.369Z,3.83
2022-12-16T01:26:15.468Z,3.80
2022-12-16T01:28:42.743Z,4.20
2022-12-16T01:31:09.897Z,3.45
2022-12-16T01:33:37.121Z,3.75
2022-12-16T01:36:08.339Z,4.05
2022-12-16T01:38:35.814Z,4.28
2022-12-16T01:41:03.854Z,4.35
2022-12-16T01:43:32.702Z,3.70
2022-12-16T01:46:06.557Z,4.05
2022-12-16T01:48:34.215Z,3.70
2022-12-16T01:51:03.870Z,3.90
2022-12-16T01:53:31.892Z,4.85
2022-12-16T01:56:00.254Z,4.07
2022-12-16T01:58:29.454Z,3.80
2022-12-16T02:00:56.803Z,4.53
2022-12-16T02:03:24.144Z,3.55
2022-12-16T02:05:51.750Z,3.25
2022-12-16T02:08:20.646Z,3.53
2022-12-16T02:14:01.135Z,3.20
2022-12-16T02:16:33.517Z,2.97
2022-12-16T02:19:19.440Z,3.72
2022-12-16T02:22:05.557Z,3.45
2022-12-16T02:24:51.617Z,4.05
2022-12-16T02:30:41.398Z,3.55
2022-12-16T02:33:22.200Z,4.03
2022-12-16T02:35:59.182Z,4.07
2022-12-16T02:38:42.847Z,3.92
2022-12-16T02:41:15.333Z,3.97
2022-12-16T02:46:28.781Z,2.67
2022-12-16T02:48:55.990Z,2.80
2022-12-16T02:51:25.712Z,3.92
2022-12-16T02:53:54.158Z,3.88
2022-12-16T02:56:21.311Z,3.28
2022-12-16T02:58:48.458Z,4.05
2022-12-16T03:04:05.842Z,3.63
2022-12-16T03:06:33.983Z,3.38
2022-12-16T03:09:02.796Z,2.97
2022-12-16T03:11:31.205Z,2.75
2022-12-16T03:13:58.727Z,3.38
2022-12-16T03:16:28.503Z,2.63
2022-12-16T03:21:53.516Z,2.65
2022-12-16T03:24:21.083Z,4.03
2022-12-16T03:27:12.866Z,3.53
2022-12-16T03:29:51.157Z,3.13
2022-12-16T03:32:21.460Z,4.03
2022-12-16T03:37:39.113Z,2.97
2022-12-16T03:40:07.875Z,4.10
2022-12-16T03:42:36.404Z,3.80
2022-12-16T03:45:04.076Z,3.28
2022-12-16T03:47:31.504Z,3.15
2022-12-16T03:49:58.722Z,3.40
2022-12-16T03:55:10.626Z,3.17
2022-12-16T03:57:37.991Z,3.47
2022-12-16T04:00:05.940Z,3.42
2022-12-16T04:02:33.310Z,2.30
2022-12-16T04:05:00.795Z,3.60
2022-12-16T04:07:27.976Z,2.72
2022-12-16T04:09:55.221Z,3.35
2022-12-16T04:12:41.418Z,3.58
2022-12-16T04:15:38.163Z,3.10
2022-12-16T04:18:24.873Z,3.30
2022-12-16T04:21:12.344Z,3.08
2022-12-16T04:24:04.652Z,2.80
2022-12-16T04:26:31.907Z,2.60
2022-12-16T04:28:59.841Z,3.47
2022-12-16T04:31:27.059Z,2.75
2022-12-16T04:34:12.911Z,2.42
2022-12-16T04:36:58.806Z,2.63
2022-12-16T04:39:44.915Z,2.17
2022-12-16T04:45:34.199Z,2.67
2022-12-16T04:48:20.424Z,2.92
2022-12-16T04:51:06.187Z,2.70
2022-12-16T04:53:52.153Z,3.10
2022-12-16T04:56:37.923Z,3.63
2022-12-16T05:02:27.829Z,3.35
2022-12-16T05:05:13.638Z,3.35
2022-12-16T05:07:59.435Z,3.78
2022-12-16T05:10:45.216Z,3.22
2022-12-16T05:13:48.139Z,3.88
2022-12-16T05:16:33.665Z,2.95
2022-12-16T05:19:19.287Z,3.25
2022-12-16T05:22:04.773Z,3.20
2022-12-16T05:24:53.022Z,3.83
2022-12-16T05:27:39.102Z,3.92
2022-12-16T05:30:29.124Z,3.30
2022-12-16T05:36:03.540Z,3.03
2022-12-16T05:38:49.226Z,2.83
2022-12-16T05:41:35.091Z,2.95
2022-12-16T05:44:28.533Z,2.92
2022-12-16T05:47:14.221Z,3.42
2022-12-16T05:50:17.104Z,2.75
2022-12-16T05:53:12.639Z,3.22
2022-12-16T05:55:58.871Z,2.78
2022-12-16T05:58:44.645Z,2.28
2022-12-16T06:01:30.508Z,2.45
2022-12-16T06:04:17.937Z,2.90
2022-12-16T06:07:04.097Z,2.50
2022-12-16T06:09:56.068Z,1.75
2022-12-16T06:12:42.661Z,2.47
2022-12-16T06:15:39.452Z,2.63
2022-12-16T06:18:25.049Z,3.55
2022-12-16T06:21:11.108Z,2.78
2022-12-16T06:23:57.099Z,3.42
2022-12-16T06:26:43.044Z,2.75
2022-12-16T06:29:29.096Z,3.05
2022-12-16T06:32:14.635Z,1.90
2022-12-16T06:35:00.439Z,3.45
2022-12-16T06:37:46.204Z,2.90
2022-12-16T06:40:32.073Z,2.58
2022-12-16T06:43:17.849Z,2.75
2022-12-16T06:46:03.749Z,3.42
2022-12-16T06:48:49.427Z,2.42
2022-12-16T06:51:35.298Z,2.40
2022-12-16T06:54:21.114Z,2.33
2022-12-16T06:57:07.082Z,3.15
2022-12-16T06:59:52.849Z,3.22
2022-12-16T07:02:38.672Z,2.80
2022-12-16T07:05:25.093Z,3.10
2022-12-16T07:08:11.556Z,2.85
2022-12-16T07:11:17.700Z,2.13
2022-12-16T07:14:04.110Z,1.73
2022-12-16T07:16:50.172Z,2.80
2022-12-16T07:19:35.879Z,2.70
2022-12-16T07:22:21.696Z,2.75
2022-12-16T07:25:07.548Z,2.17
2022-12-16T07:27:53.104Z,3.42
2022-12-16T07:30:39.243Z,2.95
2022-12-16T07:33:25.159Z,2.90
2022-12-16T07:36:10.987Z,3.00
2022-12-16T07:38:57.022Z,2.60
2022-12-16T07:41:42.878Z,2.72
2022-12-16T07:44:28.872Z,2.88
2022-12-16T07:47:14.962Z,3.05
2022-12-16T07:50:00.748Z,2.70
2022-12-16T07:52:46.793Z,3.13
2022-12-16T07:55:32.874Z,3.03
2022-12-16T07:58:19.007Z,3.17
2022-12-16T08:01:09.209Z,2.78
2022-12-16T08:03:56.132Z,3.22
2022-12-16T08:06:42.369Z,2.53
2022-12-16T08:09:28.432Z,2.88
2022-12-16T08:12:14.305Z,2.63
2022-12-16T08:15:00.027Z,3.95
2022-12-16T08:17:45.755Z,3.63
2022-12-16T08:20:31.703Z,3.33
2022-12-16T08:23:17.577Z,3.30
2022-12-16T08:26:04.983Z,3.30
2022-12-16T08:28:50.751Z,3.08
2022-12-16T08:31:36.807Z,2.90
2022-12-16T08:34:22.963Z,3.45
2022-12-16T08:37:08.899Z,2.83
2022-12-16T08:40:17.657Z,2.83
2022-12-16T08:43:00.876Z,2.85
2022-12-16T08:45:48.081Z,2.63
2022-12-16T08:48:33.810Z,3.00
2022-12-16T08:51:26.354Z,3.05
2022-12-16T08:54:12.463Z,3.55
2022-12-16T08:56:58.253Z,3.63
2022-12-16T08:59:44.462Z,3.90
2022-12-16T09:02:30.967Z,3.15
2022-12-16T09:05:17.247Z,4.30
2022-12-16T09:08:03.168Z,4.03
2022-12-16T09:10:48.925Z,3.30
2022-12-16T09:13:35.571Z,3.40
2022-12-16T09:16:22.014Z,2.88
2022-12-16T09:19:07.935Z,2.60
2022-12-16T09:21:55.111Z,3.28
2022-12-16T09:24:41.063Z,2.28
2022-12-16T09:27:27.107Z,3.40
2022-12-16T09:30:13.056Z,3.15
2022-12-16T09:33:02.420Z,2.60
2022-12-16T09:35:48.417Z,3.03
2022-12-16T09:38:34.572Z,2.72
2022-12-16T09:41:41.222Z,3.17
2022-12-16T09:44:42.575Z,3.33
2022-12-16T09:47:37.617Z,3.38
2022-12-16T09:50:24.319Z,3.08
2022-12-16T09:53:15.701Z,3.13
2022-12-16T09:56:02.387Z,2.63
2022-12-16T09:59:16.839Z,3.05
2022-12-16T10:02:02.996Z,2.38
2022-12-16T10:04:48.854Z,3.00
2022-12-16T10:07:38.269Z,2.67
2022-12-16T10:10:38.895Z,2.17
2022-12-16T10:13:43.356Z,3.13
2022-12-16T10:16:35.053Z,3.67
2022-12-16T10:19:26.003Z,2.58
2022-12-16T10:22:11.939Z,2.60
2022-12-16T10:24:57.723Z,3.03
2022-12-16T10:27:49.235Z,3.20
2022-12-16T10:30:34.840Z,2.90
2022-12-16T10:33:21.245Z,3.05
2022-12-16T10:36:09.765Z,2.35
2022-12-16T10:39:09.420Z,3.08
2022-12-16T10:41:57.154Z,3.05
2022-12-16T10:45:02.956Z,3.38
2022-12-16T10:47:49.382Z,2.92
2022-12-16T10:50:35.472Z,3.13
2022-12-16T10:53:24.174Z,2.13
2022-12-16T10:56:29.132Z,2.42
2022-12-16T10:59:17.869Z,2.45
2022-12-16T11:02:15.262Z,3.10
2022-12-16T11:05:01.612Z,2.67
2022-12-16T11:08:02.931Z,2.40
2022-12-16T11:10:51.672Z,3.08
2022-12-16T11:13:41.544Z,2.67
2022-12-16T11:16:27.581Z,2.78
2022-12-16T11:19:13.369Z,2.67
2022-12-16T11:21:59.166Z,3.58
2022-12-16T11:24:45.063Z,2.28
2022-12-16T11:27:42.621Z,2.20
2022-12-16T11:30:36.514Z,2.55
2022-12-16T11:33:26.023Z,2.88
2022-12-16T11:36:39.913Z,2.50
2022-12-16T11:39:27.227Z,2.35
2022-12-16T11:42:14.343Z,2.60
2022-12-16T11:45:03.789Z,2.83
2022-12-16T11:47:49.267Z,2.78
2022-12-16T11:50:37.259Z,1.95
2022-12-16T11:53:24.888Z,3.55
2022-12-16T11:56:16.279Z,2.95
2022-12-16T11:59:06.833Z,2.50
2022-12-16T12:01:56.581Z,2.65
2022-12-16T12:04:42.469Z,2.53
2022-12-16T12:07:28.383Z,2.67
2022-12-16T12:10:21.809Z,3.33
2022-12-16T12:13:11.490Z,2.95
2022-12-16T12:16:06.632Z,3.03
2022-12-16T12:19:14.128Z,2.70
2022-12-16T12:22:16.538Z,3.15
2022-12-16T12:25:08.536Z,41.80
2022-12-16T12:27:56.820Z,2.38
2022-12-16T12:30:43.399Z,2.95
2022-12-16T12:33:29.245Z,2.25
2022-12-16T12:36:21.114Z,2.92
2022-12-16T12:39:06.822Z,2.47
2022-12-16T12:42:04.848Z,2.70
2022-12-16T12:45:14.174Z,3.40
2022-12-16T12:48:05.943Z,3.13
2022-12-16T12:50:59.570Z,2.92
2022-12-16T12:54:04.021Z,2.83
2022-12-16T12:57:06.869Z,3.17
2022-12-16T13:00:11.134Z,3.10
2022-12-16T13:03:11.442Z,4.50
2022-12-16T13:05:58.636Z,3.40
2022-12-16T13:08:50.928Z,4.22
2022-12-16T13:11:37.805Z,3.70
2022-12-16T13:14:43.311Z,5.35
2022-12-16T13:17:46.070Z,3.80
2022-12-16T13:20:50.591Z,4.35
2022-12-16T13:23:55.963Z,4.47
2022-12-16T13:26:43.260Z,3.58
2022-12-16T13:29:44.505Z,4.45
2022-12-16T13:32:38.153Z,4.40
2022-12-16T13:35:26.987Z,3.92
2022-12-16T13:38:12.685Z,4.10
2022-12-16T13:41:13.616Z,4.05
2022-12-16T13:44:17.101Z,5.07
2022-12-16T13:47:05.306Z,4.35
2022-12-16T13:49:56.950Z,4.35
2022-12-16T13:52:47.513Z,4.35
2022-12-16T13:55:35.814Z,4.25
2022-12-16T13:58:23.288Z,4.55
2022-12-16T14:01:17.277Z,3.90
2022-12-16T14:04:05.012Z,3.53
2022-12-16T14:06:53.051Z,4.65
2022-12-16T14:09:44.025Z,4.47
2022-12-16T14:12:36.007Z,4.70
2022-12-16T14:15:26.867Z,4.38
2022-12-16T14:18:25.458Z,4.03
2022-12-16T14:21:15.219Z,4.70
2022-12-16T14:24:08.380Z,4.57
2022-12-16T14:26:55.002Z,4.47
2022-12-16T14:29:41.917Z,4.40
2022-12-16T14:32:41.078Z,5.95
2022-12-16T14:35:32.175Z,7.40
2022-12-16T14:38:18.428Z,19.63
2022-12-16T14:41:09.828Z,15.20
2022-12-16T14:43:55.784Z,15.00
2022-12-16T14:46:49.858Z,16.90
2022-12-16T14:49:46.122Z,14.02
2022-12-16T14:52:42.159Z,9.15
2022-12-16T14:55:33.203Z,24.42
2022-12-16T14:58:23.313Z,26.08
2022-12-16T15:01:15.324Z,20.35
2022-12-16T15:04:03.894Z,13.75
2022-12-16T15:06:52.529Z,7.75
2022-12-16T15:09:44.951Z,7.20
2022-12-16T15:12:32.329Z,4.93
2022-12-16T15:15:21.424Z,5.93
2022-12-16T15:18:09.483Z,7.80
2022-12-16T15:20:56.934Z,7.05
2022-12-16T15:23:42.711Z,7.95
2022-12-16T15:26:29.200Z,7.88
2022-12-16T15:29:15.080Z,8.23
2022-12-16T15:32:03.604Z,7.15
2022-12-16T15:34:52.166Z,6.28
2022-12-16T15:37:40.964Z,5.45
2022-12-16T15:40:47.253Z,6.38
2022-12-16T15:43:44.775Z,6.90
2022-12-16T15:46:44.170Z,8.55
2022-12-16T15:49:35.822Z,5.50
2022-12-16T15:52:21.861Z,4.38
2022-12-16T15:55:09.076Z,4.80
2022-12-16T15:57:56.055Z,4.40
2022-12-16T16:00:51.154Z,4.32
2022-12-16T16:03:51.280Z,4.88
2022-12-16T16:06:41.544Z,5.07
2022-12-16T16:09:32.237Z,5.53
2022-12-16T16:12:18.249Z,5.65
2022-12-16T16:15:05.235Z,5.10
2022-12-16T16:17:51.134Z,7.65
2022-12-16T16:20:37.475Z,10.48
2022-12-16T16:23:24.069Z,8.82
2022-12-16T16:26:10.381Z,9.48
2022-12-16T16:28:56.432Z,14.15
2022-12-16T16:31:42.792Z,8.18
2022-12-16T16:34:29.328Z,5.45
2022-12-16T16:37:16.665Z,4.63
2022-12-16T16:40:07.847Z,5.10
2022-12-16T16:42:55.118Z,5.22
2022-12-16T16:45:41.448Z,4.97
2022-12-16T16:48:31.707Z,3.88
2022-12-16T16:51:18.233Z,5.05
2022-12-16T16:54:04.137Z,4.75
2022-12-16T16:56:54.559Z,5.45
2022-12-16T16:59:44.136Z,5.55
2022-12-16T17:02:42.402Z,5.05
2022-12-16T17:05:31.960Z,4.85
2022-12-16T17:08:18.019Z,5.05
2022-12-16T17:11:03.926Z,4.80
2022-12-16T17:13:50.187Z,4.75
2022-12-16T17:16:36.497Z,3.75
2022-12-16T17:19:22.970Z,4.78
2022-12-16T17:22:08.911Z,4.43
2022-12-16T17:24:55.041Z,4.25
2022-12-16T17:27:42.917Z,4.53
2022-12-16T17:30:46.505Z,4.20
2022-12-16T17:33:33.583Z,4.53
2022-12-16T17:36:19.889Z,3.92
2022-12-16T17:39:05.728Z,3.67
2022-12-16T17:41:52.590Z,4.53
2022-12-16T17:44:38.688Z,8.90
2022-12-16T17:47:24.446Z,6.35
2022-12-16T17:50:10.627Z,5.45
2022-12-16T17:52:57.169Z,10.90
2022-12-16T17:55:42.962Z,14.32
2022-12-16T17:58:30.961Z,12.48
2022-12-16T18:01:24.218Z,7.72
2022-12-16T18:04:11.029Z,7.18
2022-12-16T18:06:57.139Z,7.85
2022-12-16T18:09:42.907Z,7.15
2022-12-16T18:12:29.070Z,15.20
2022-12-16T18:15:15.176Z,13.57
2022-12-16T18:18:01.281Z,24.40
2022-12-16T18:20:47.468Z,9.15
2022-12-16T18:23:33.863Z,30.58
2022-12-16T18:26:21.048Z,29.23
2022-12-16T18:29:07.072Z,41.58
2022-12-16T18:31:53.463Z,42.53
2022-12-16T18:34:39.821Z,41.05
2022-12-16T18:37:25.712Z,34.05
2022-12-16T18:40:11.749Z,22.45
2022-12-16T18:42:57.513Z,15.23
2022-12-16T18:45:43.436Z,14.73
2022-12-16T18:48:29.283Z,14.00
2022-12-16T18:51:16.016Z,12.57
2022-12-16T18:54:01.864Z,10.40
2022-12-16T18:56:48.002Z,12.48
2022-12-16T18:59:34.244Z,12.35
2022-12-16T19:02:20.483Z,10.50
2022-12-16T19:05:06.893Z,11.10
2022-12-16T19:07:54.004Z,12.43
2022-12-16T19:10:39.795Z,12.50
2022-12-16T19:13:25.725Z,12.60
2022-12-16T19:16:15.679Z,10.75
2022-12-16T19:19:01.944Z,8.52
2022-12-16T19:21:52.322Z,6.53
2022-12-16T19:24:43.029Z,6.72
2022-12-16T19:27:29.169Z,9.23
2022-12-16T19:30:15.309Z,7.72
2022-12-16T19:33:02.216Z,9.27
2022-12-16T19:35:48.043Z,7.78
2022-12-16T19:38:34.194Z,9.07
2022-12-16T19:41:20.474Z,7.85
2022-12-16T19:44:09.517Z,5.72
2022-12-16T19:46:58.880Z,6.85
2022-12-16T19:49:45.257Z,6.03
2022-12-16T19:52:31.968Z,6.28
2022-12-16T19:55:18.295Z,6.00
2022-12-16T19:58:04.281Z,4.32
2022-12-16T20:00:50.407Z,3.22
2022-12-16T20:03:36.990Z,2.88
2022-12-16T20:06:24.014Z,2.35
2022-12-16T20:09:10.817Z,2.58
2022-12-16T20:11:57.025Z,2.38
2022-12-16T20:14:43.360Z,2.25
2022-12-16T20:17:29.349Z,2.70
2022-12-16T20:20:15.637Z,2.40
2022-12-16T20:23:01.558Z,3.00
2022-12-16T20:25:47.549Z,3.08
2022-12-16T20:28:35.568Z,4.80
2022-12-16T20:31:22.143Z,4.22
2022-12-16T20:34:12.799Z,3.55
2022-12-16T20:36:58.680Z,3.47
2022-12-16T20:39:49.529Z,2.67
2022-12-16T20:42:38.739Z,2.08
2022-12-16T20:45:24.901Z,2.33
2022-12-16T20:48:12.419Z,2.10
2022-12-16T20:50:58.409Z,1.40
2022-12-16T20:53:44.743Z,1.25
2022-12-16T20:56:30.549Z,1.30
2022-12-16T20:59:16.603Z,3.72
2022-12-16T21:02:22.665Z,10.65
2022-12-16T21:05:08.676Z,6.07
2022-12-16T21:07:56.941Z,2.55
2022-12-16T21:10:42.856Z,1.80
2022-12-16T21:13:33.684Z,1.10
2022-12-16T21:16:20.986Z,3.30
2022-12-16T21:19:06.950Z,4.93
2022-12-16T21:21:53.049Z,3.95
2022-12-16T21:24:39.438Z,3.78
2022-12-16T21:27:25.095Z,4.45
2022-12-16T21:30:10.869Z,5.20
2022-12-16T21:32:57.172Z,4.45
2022-12-16T21:35:43.386Z,5.70
2022-12-16T21:38:29.748Z,7.10
2022-12-16T21:41:16.100Z,5.72
2022-12-16T21:44:02.031Z,5.97
2022-12-16T21:46:48.014Z,5.50
2022-12-16T21:49:33.869Z,4.03
2022-12-16T21:52:20.018Z,2.53
2022-12-16T21:55:06.236Z,3.55
2022-12-16T21:57:53.253Z,3.53
2022-12-16T22:00:39.496Z,4.35
2022-12-16T22:03:25.563Z,4.32
2022-12-16T22:06:11.391Z,4.10
2022-12-16T22:08:57.192Z,2.65
2022-12-16T22:11:42.913Z,2.58
2022-12-16T22:14:28.814Z,1.55
2022-12-16T22:17:14.737Z,1.25
2022-12-16T22:20:00.624Z,0.98
2022-12-16T22:22:46.405Z,0.98
2022-12-16T22:25:32.490Z,1.10
2022-12-16T22:28:18.259Z,0.75
2022-12-16T22:31:04.596Z,0.90
2022-12-16T22:33:50.944Z,0.80
2022-12-16T22:36:37.994Z,0.95
2022-12-16T22:39:24.096Z,2.88
2022-12-16T22:42:09.725Z,2.75
2022-12-16T22:44:56.506Z,2.30
2022-12-16T22:47:42.558Z,1.67
2022-12-16T22:50:28.271Z,1.42
2022-12-16T22:53:14.290Z,1.08
2022-12-16T22:56:02.118Z,1.20
2022-12-16T22:58:48.406Z,1.20
2022-12-16T23:01:34.369Z,1.35
2022-12-16T23:04:20.267Z,0.50
2022-12-16T23:07:06.231Z,0.30
2022-12-16T23:09:53.280Z,0.73
2022-12-16T23:12:40.186Z,0.30
2022-12-16T23:15:26.739Z,0.20
2022-12-16T23:18:29.377Z,0.40
2022-12-16T23:21:15.051Z,0.50
2022-12-16T23:24:01.057Z,0.30
2022-12-16T23:26:46.806Z,0.10
2022-12-16T23:29:32.483Z,0.30
2022-12-16T23:32:18.298Z,0.40
2022-12-16T23:35:05.023Z,0.30
2022-12-16T23:37:50.716Z,0.40
2022-12-16T23:40:36.463Z,0.15
2022-12-16T23:43:22.232Z,0.20
2022-12-16T23:46:08.245Z,0.20
2022-12-16T23:48:53.919Z,0.20
2022-12-16T23:51:39.632Z,0.20
2022-12-16T23:54:25.355Z,0.20
2022-12-16T23:57:11.228Z,0.50
2022-12-16T23:59:56.956Z,0.20
